sensor_id;sensor_type;location;lat;lon;timestamp;pressure;altitude;pressure_sealevel;temperature;humidity
61359;BME280;47228;46.762;23.598;2023-03-19T00:01:05;97746.31;;;0.45;69.93
61359;BME280;47228;46.762;23.598;2023-03-19T00:03:41;97745.20;;;0.44;69.88
61359;BME280;47228;46.762;23.598;2023-03-19T00:06:09;97740.79;;;0.42;69.78
61359;BME280;47228;46.762;23.598;2023-03-19T00:08:38;97742.43;;;0.42;69.80
61359;BME280;47228;46.762;23.598;2023-03-19T00:11:10;97741.70;;;0.40;69.84
61359;BME280;47228;46.762;23.598;2023-03-19T00:13:39;97742.15;;;0.36;69.79
61359;BME280;47228;46.762;23.598;2023-03-19T00:16:07;97740.17;;;0.35;69.82
61359;BME280;47228;46.762;23.598;2023-03-19T00:18:35;97740.34;;;0.33;69.88
61359;BME280;47228;46.762;23.598;2023-03-19T00:21:03;97737.83;;;0.30;69.90
61359;BME280;47228;46.762;23.598;2023-03-19T00:23:31;97735.66;;;0.24;69.81
61359;BME280;47228;46.762;23.598;2023-03-19T00:25:59;97737.14;;;0.17;69.74
61359;BME280;47228;46.762;23.598;2023-03-19T00:28:28;97738.17;;;0.10;70.00
61359;BME280;47228;46.762;23.598;2023-03-19T00:30:57;97736.45;;;0.06;70.21
61359;BME280;47228;46.762;23.598;2023-03-19T00:33:25;97734.90;;;0.01;70.41
61359;BME280;47228;46.762;23.598;2023-03-19T00:35:53;97737.98;;;-0.02;70.44
61359;BME280;47228;46.762;23.598;2023-03-19T00:38:21;97738.27;;;-0.04;70.57
61359;BME280;47228;46.762;23.598;2023-03-19T00:40:49;97734.84;;;-0.07;70.54
61359;BME280;47228;46.762;23.598;2023-03-19T00:43:16;97732.45;;;-0.09;70.63
61359;BME280;47228;46.762;23.598;2023-03-19T00:45:44;97730.61;;;-0.10;70.84
61359;BME280;47228;46.762;23.598;2023-03-19T00:48:12;97730.16;;;-0.11;70.84
61359;BME280;47228;46.762;23.598;2023-03-19T00:50:40;97726.73;;;-0.14;70.92
61359;BME280;47228;46.762;23.598;2023-03-19T00:53:08;97722.94;;;-0.17;71.09
61359;BME280;47228;46.762;23.598;2023-03-19T00:55:36;97722.02;;;-0.18;71.11
61359;BME280;47228;46.762;23.598;2023-03-19T00:58:04;97723.36;;;-0.17;71.26
61359;BME280;47228;46.762;23.598;2023-03-19T01:00:33;97722.30;;;-0.17;71.32
61359;BME280;47228;46.762;23.598;2023-03-19T01:03:04;97719.88;;;-0.18;71.34
61359;BME280;47228;46.762;23.598;2023-03-19T01:05:36;97718.45;;;-0.17;71.59
61359;BME280;47228;46.762;23.598;2023-03-19T01:08:02;97718.41;;;-0.16;71.51
61359;BME280;47228;46.762;23.598;2023-03-19T01:10:32;97713.16;;;-0.16;71.27
61359;BME280;47228;46.762;23.598;2023-03-19T01:13:01;97715.90;;;-0.15;71.22
61359;BME280;47228;46.762;23.598;2023-03-19T01:15:29;97715.05;;;-0.14;71.28
61359;BME280;47228;46.762;23.598;2023-03-19T01:17:57;97712.64;;;-0.16;71.24
61359;BME280;47228;46.762;23.598;2023-03-19T01:20:25;97710.77;;;-0.19;71.25
61359;BME280;47228;46.762;23.598;2023-03-19T01:22:53;97712.08;;;-0.20;71.39
61359;BME280;47228;46.762;23.598;2023-03-19T01:25:21;97713.30;;;-0.20;71.50
61359;BME280;47228;46.762;23.598;2023-03-19T01:27:50;97712.85;;;-0.21;71.60
61359;BME280;47228;46.762;23.598;2023-03-19T01:30:19;97714.21;;;-0.27;71.23
61359;BME280;47228;46.762;23.598;2023-03-19T01:32:47;97716.52;;;-0.34;71.32
61359;BME280;47228;46.762;23.598;2023-03-19T01:35:15;97721.03;;;-0.38;71.37
61359;BME280;47228;46.762;23.598;2023-03-19T01:37:43;97718.42;;;-0.43;71.34
61359;BME280;47228;46.762;23.598;2023-03-19T01:40:13;97720.27;;;-0.46;71.55
61359;BME280;47228;46.762;23.598;2023-03-19T01:45:42;97716.67;;;-0.47;72.16
61359;BME280;47228;46.762;23.598;2023-03-19T01:48:37;97716.40;;;-0.45;72.24
61359;BME280;47228;46.762;23.598;2023-03-19T01:51:09;97714.52;;;-0.44;72.39
61359;BME280;47228;46.762;23.598;2023-03-19T01:53:39;97716.27;;;-0.44;72.44
61359;BME280;47228;46.762;23.598;2023-03-19T01:56:14;97717.64;;;-0.45;72.44
61359;BME280;47228;46.762;23.598;2023-03-19T01:58:45;97719.01;;;-0.45;72.64
61359;BME280;47228;46.762;23.598;2023-03-19T02:01:14;97721.71;;;-0.47;72.42
61359;BME280;47228;46.762;23.598;2023-03-19T02:03:42;97716.92;;;-0.48;72.35
61359;BME280;47228;46.762;23.598;2023-03-19T02:06:11;97716.45;;;-0.48;72.32
61359;BME280;47228;46.762;23.598;2023-03-19T02:08:40;97717.12;;;-0.48;72.56
61359;BME280;47228;46.762;23.598;2023-03-19T02:11:09;97720.34;;;-0.47;72.61
61359;BME280;47228;46.762;23.598;2023-03-19T02:13:37;97718.29;;;-0.47;72.32
61359;BME280;47228;46.762;23.598;2023-03-19T02:16:06;97717.11;;;-0.48;72.32
61359;BME280;47228;46.762;23.598;2023-03-19T02:18:34;97714.85;;;-0.53;72.29
61359;BME280;47228;46.762;23.598;2023-03-19T02:21:06;97715.65;;;-0.56;72.25
61359;BME280;47228;46.762;23.598;2023-03-19T02:26:19;97719.98;;;-0.64;72.20
61359;BME280;47228;46.762;23.598;2023-03-19T02:28:50;97723.52;;;-0.70;72.34
61359;BME280;47228;46.762;23.598;2023-03-19T02:31:19;97721.41;;;-0.74;72.29
61359;BME280;47228;46.762;23.598;2023-03-19T02:36:45;97716.73;;;-0.78;72.87
61359;BME280;47228;46.762;23.598;2023-03-19T02:39:25;97715.98;;;-0.78;72.86
61359;BME280;47228;46.762;23.598;2023-03-19T02:41:56;97716.09;;;-0.77;73.20
61359;BME280;47228;46.762;23.598;2023-03-19T02:44:25;97714.04;;;-0.75;73.25
61359;BME280;47228;46.762;23.598;2023-03-19T02:46:53;97718.76;;;-0.75;72.98
61359;BME280;47228;46.762;23.598;2023-03-19T02:49:21;97715.09;;;-0.77;72.89
61359;BME280;47228;46.762;23.598;2023-03-19T02:51:50;97719.71;;;-0.79;73.18
61359;BME280;47228;46.762;23.598;2023-03-19T02:54:18;97722.70;;;-0.79;73.09
61359;BME280;47228;46.762;23.598;2023-03-19T02:56:46;97725.29;;;-0.79;72.92
61359;BME280;47228;46.762;23.598;2023-03-19T02:59:14;97726.29;;;-0.78;72.87
61359;BME280;47228;46.762;23.598;2023-03-19T03:01:42;97728.28;;;-0.77;72.94
61359;BME280;47228;46.762;23.598;2023-03-19T03:04:10;97730.22;;;-0.77;72.74
61359;BME280;47228;46.762;23.598;2023-03-19T03:06:38;97729.46;;;-0.79;72.69
61359;BME280;47228;46.762;23.598;2023-03-19T03:09:06;97726.91;;;-0.82;72.97
61359;BME280;47228;46.762;23.598;2023-03-19T03:11:33;97731.17;;;-0.85;72.58
61359;BME280;47228;46.762;23.598;2023-03-19T03:14:02;97729.26;;;-0.94;72.50
61359;BME280;47228;46.762;23.598;2023-03-19T03:16:29;97732.70;;;-1.03;72.72
61359;BME280;47228;46.762;23.598;2023-03-19T03:18:58;97739.02;;;-1.08;72.93
61359;BME280;47228;46.762;23.598;2023-03-19T03:21:26;97740.17;;;-1.12;73.10
61359;BME280;47228;46.762;23.598;2023-03-19T03:23:54;97742.89;;;-1.15;73.29
61359;BME280;47228;46.762;23.598;2023-03-19T03:26:22;97741.77;;;-1.17;73.43
61359;BME280;47228;46.762;23.598;2023-03-19T03:28:50;97741.70;;;-1.15;73.69
61359;BME280;47228;46.762;23.598;2023-03-19T03:31:19;97740.33;;;-1.13;73.50
61359;BME280;47228;46.762;23.598;2023-03-19T03:33:47;97744.55;;;-1.12;73.69
61359;BME280;47228;46.762;23.598;2023-03-19T03:36:15;97748.66;;;-1.09;73.91
61359;BME280;47228;46.762;23.598;2023-03-19T03:38:44;97750.13;;;-1.08;73.93
61359;BME280;47228;46.762;23.598;2023-03-19T03:41:12;97748.64;;;-1.06;73.87
61359;BME280;47228;46.762;23.598;2023-03-19T03:43:40;97748.38;;;-1.05;73.61
61359;BME280;47228;46.762;23.598;2023-03-19T03:46:08;97747.08;;;-1.09;73.63
61359;BME280;47228;46.762;23.598;2023-03-19T03:48:36;97746.17;;;-1.13;73.47
61359;BME280;47228;46.762;23.598;2023-03-19T03:51:04;97743.99;;;-1.16;73.54
61359;BME280;47228;46.762;23.598;2023-03-19T03:53:32;97744.09;;;-1.18;73.28
61359;BME280;47228;46.762;23.598;2023-03-19T03:56:00;97746.60;;;-1.19;73.34
61359;BME280;47228;46.762;23.598;2023-03-19T03:58:29;97748.00;;;-1.21;73.35
61359;BME280;47228;46.762;23.598;2023-03-19T04:00:57;97744.71;;;-1.21;73.71
61359;BME280;47228;46.762;23.598;2023-03-19T04:03:24;97748.02;;;-1.19;73.87
61359;BME280;47228;46.762;23.598;2023-03-19T04:05:53;97751.41;;;-1.18;73.95
61359;BME280;47228;46.762;23.598;2023-03-19T04:08:21;97750.46;;;-1.17;73.76
61359;BME280;47228;46.762;23.598;2023-03-19T04:10:50;97748.44;;;-1.18;73.66
61359;BME280;47228;46.762;23.598;2023-03-19T04:13:17;97748.70;;;-1.21;73.47
61359;BME280;47228;46.762;23.598;2023-03-19T04:15:45;97751.05;;;-1.27;73.50
61359;BME280;47228;46.762;23.598;2023-03-19T04:18:13;97750.96;;;-1.32;73.36
61359;BME280;47228;46.762;23.598;2023-03-19T04:20:41;97748.97;;;-1.36;73.52
61359;BME280;47228;46.762;23.598;2023-03-19T04:23:10;97747.36;;;-1.37;73.46
61359;BME280;47228;46.762;23.598;2023-03-19T04:25:38;97751.34;;;-1.39;73.28
61359;BME280;47228;46.762;23.598;2023-03-19T04:28:07;97747.75;;;-1.43;73.40
61359;BME280;47228;46.762;23.598;2023-03-19T04:30:35;97744.34;;;-1.44;73.65
61359;BME280;47228;46.762;23.598;2023-03-19T04:33:04;97742.85;;;-1.43;74.06
61359;BME280;47228;46.762;23.598;2023-03-19T04:35:33;97743.05;;;-1.40;74.17
61359;BME280;47228;46.762;23.598;2023-03-19T04:38:02;97743.96;;;-1.41;74.09
61359;BME280;47228;46.762;23.598;2023-03-19T04:40:30;97740.11;;;-1.40;74.12
61359;BME280;47228;46.762;23.598;2023-03-19T04:42:59;97740.11;;;-1.40;74.40
61359;BME280;47228;46.762;23.598;2023-03-19T04:45:27;97738.35;;;-1.40;74.49
61359;BME280;47228;46.762;23.598;2023-03-19T04:47:55;97737.90;;;-1.41;74.23
61359;BME280;47228;46.762;23.598;2023-03-19T04:50:23;97734.98;;;-1.42;74.30
61359;BME280;47228;46.762;23.598;2023-03-19T04:52:51;97734.54;;;-1.40;74.35
61359;BME280;47228;46.762;23.598;2023-03-19T04:55:19;97742.79;;;-1.39;74.18
61359;BME280;47228;46.762;23.598;2023-03-19T04:57:47;97741.95;;;-1.39;73.91
61359;BME280;47228;46.762;23.598;2023-03-19T05:00:15;97746.84;;;-1.40;74.20
61359;BME280;47228;46.762;23.598;2023-03-19T05:02:44;97745.48;;;-1.40;74.18
61359;BME280;47228;46.762;23.598;2023-03-19T05:05:12;97748.73;;;-1.40;74.24
61359;BME280;47228;46.762;23.598;2023-03-19T05:07:40;97749.88;;;-1.36;74.55
61359;BME280;47228;46.762;23.598;2023-03-19T05:10:09;97748.77;;;-1.33;74.50
61359;BME280;47228;46.762;23.598;2023-03-19T05:12:38;97748.52;;;-1.30;74.55
61359;BME280;47228;46.762;23.598;2023-03-19T05:15:06;97746.34;;;-1.24;74.46
61359;BME280;47228;46.762;23.598;2023-03-19T05:17:34;97747.65;;;-1.19;74.27
61359;BME280;47228;46.762;23.598;2023-03-19T05:20:03;97746.90;;;-1.13;74.14
61359;BME280;47228;46.762;23.598;2023-03-19T05:22:33;97749.74;;;-1.10;73.86
61359;BME280;47228;46.762;23.598;2023-03-19T05:25:01;97750.29;;;-1.06;73.80
61359;BME280;47228;46.762;23.598;2023-03-19T05:27:29;97752.09;;;-1.02;73.78
61359;BME280;47228;46.762;23.598;2023-03-19T05:29:57;97752.92;;;-0.97;73.65
61359;BME280;47228;46.762;23.598;2023-03-19T05:32:25;97751.97;;;-0.93;73.64
61359;BME280;47228;46.762;23.598;2023-03-19T05:34:53;97750.09;;;-0.89;73.53
61359;BME280;47228;46.762;23.598;2023-03-19T05:37:21;97749.16;;;-0.82;73.79
61359;BME280;47228;46.762;23.598;2023-03-19T05:39:52;97750.77;;;-0.71;73.96
61359;BME280;47228;46.762;23.598;2023-03-19T05:42:20;97748.75;;;-0.59;74.13
61359;BME280;47228;46.762;23.598;2023-03-19T05:44:48;97746.50;;;-0.46;74.14
61359;BME280;47228;46.762;23.598;2023-03-19T05:47:16;97749.73;;;-0.34;73.74
61359;BME280;47228;46.762;23.598;2023-03-19T05:49:44;97748.77;;;-0.22;73.53
61359;BME280;47228;46.762;23.598;2023-03-19T05:52:12;97751.14;;;-0.10;73.48
61359;BME280;47228;46.762;23.598;2023-03-19T05:54:41;97750.29;;;0.01;73.06
61359;BME280;47228;46.762;23.598;2023-03-19T05:57:09;97753.51;;;0.10;72.74
61359;BME280;47228;46.762;23.598;2023-03-19T05:59:37;97754.67;;;0.19;72.69
61359;BME280;47228;46.762;23.598;2023-03-19T06:02:05;97753.06;;;0.29;72.59
61359;BME280;47228;46.762;23.598;2023-03-19T06:04:33;97754.90;;;0.38;72.57
61359;BME280;47228;46.762;23.598;2023-03-19T06:07:01;97751.31;;;0.46;71.80
61359;BME280;47228;46.762;23.598;2023-03-19T06:09:29;97752.77;;;0.54;71.35
61359;BME280;47228;46.762;23.598;2023-03-19T06:11:57;97752.85;;;0.61;71.01
61359;BME280;47228;46.762;23.598;2023-03-19T06:14:25;97752.95;;;0.68;70.84
61359;BME280;47228;46.762;23.598;2023-03-19T06:16:53;97754.23;;;0.78;70.66
61359;BME280;47228;46.762;23.598;2023-03-19T06:19:21;97754.21;;;0.88;70.56
61359;BME280;47228;46.762;23.598;2023-03-19T06:21:49;97754.65;;;1.00;70.71
61359;BME280;47228;46.762;23.598;2023-03-19T06:24:17;97751.69;;;1.12;70.20
61359;BME280;47228;46.762;23.598;2023-03-19T06:26:45;97750.69;;;1.24;69.90
61359;BME280;47228;46.762;23.598;2023-03-19T06:29:13;97752.34;;;1.35;69.46
61359;BME280;47228;46.762;23.598;2023-03-19T06:31:41;97754.64;;;1.44;68.71
61359;BME280;47228;46.762;23.598;2023-03-19T06:34:11;97751.88;;;1.52;68.29
61359;BME280;47228;46.762;23.598;2023-03-19T06:36:40;97751.45;;;1.61;68.26
61359;BME280;47228;46.762;23.598;2023-03-19T06:39:08;97750.63;;;1.70;68.08
61359;BME280;47228;46.762;23.598;2023-03-19T06:41:37;97750.55;;;1.79;67.96
61359;BME280;47228;46.762;23.598;2023-03-19T06:44:05;97748.67;;;1.89;67.90
61359;BME280;47228;46.762;23.598;2023-03-19T06:46:33;97746.59;;;1.96;67.24
61359;BME280;47228;46.762;23.598;2023-03-19T06:49:01;97746.35;;;2.03;66.82
61359;BME280;47228;46.762;23.598;2023-03-19T06:51:29;97745.88;;;2.08;66.45
61359;BME280;47228;46.762;23.598;2023-03-19T06:53:57;97744.98;;;2.12;66.08
61359;BME280;47228;46.762;23.598;2023-03-19T06:56:25;97744.08;;;2.17;66.40
61359;BME280;47228;46.762;23.598;2023-03-19T06:58:54;97741.80;;;2.23;66.15
61359;BME280;47228;46.762;23.598;2023-03-19T07:01:22;97744.42;;;2.29;65.71
61359;BME280;47228;46.762;23.598;2023-03-19T07:03:50;97747.64;;;2.34;65.10
61359;BME280;47228;46.762;23.598;2023-03-19T07:06:18;97750.95;;;2.39;65.55
61359;BME280;47228;46.762;23.598;2023-03-19T07:08:46;97754.54;;;2.46;65.22
61359;BME280;47228;46.762;23.598;2023-03-19T07:11:14;97755.92;;;2.54;64.93
61359;BME280;47228;46.762;23.598;2023-03-19T07:13:43;97751.13;;;2.62;64.58
61359;BME280;47228;46.762;23.598;2023-03-19T07:16:11;97750.71;;;2.71;64.28
61359;BME280;47228;46.762;23.598;2023-03-19T07:18:39;97747.31;;;2.79;64.33
61359;BME280;47228;46.762;23.598;2023-03-19T07:21:07;97747.14;;;2.90;64.21
61359;BME280;47228;46.762;23.598;2023-03-19T07:23:35;97741.99;;;3.04;64.58
61359;BME280;47228;46.762;23.598;2023-03-19T07:26:03;97738.66;;;3.18;64.01
61359;BME280;47228;46.762;23.598;2023-03-19T07:28:31;97739.52;;;3.29;63.40
61359;BME280;47228;46.762;23.598;2023-03-19T07:31:00;97739.61;;;3.41;63.16
61359;BME280;47228;46.762;23.598;2023-03-19T07:33:27;97742.71;;;3.53;63.11
61359;BME280;47228;46.762;23.598;2023-03-19T07:35:55;97741.14;;;3.64;63.19
61359;BME280;47228;46.762;23.598;2023-03-19T07:38:23;97739.14;;;3.77;63.17
61359;BME280;47228;46.762;23.598;2023-03-19T07:40:51;97742.52;;;3.93;63.14
61359;BME280;47228;46.762;23.598;2023-03-19T07:43:29;97738.58;;;4.12;62.81
61359;BME280;47228;46.762;23.598;2023-03-19T07:45:58;97731.52;;;4.28;62.42
61359;BME280;47228;46.762;23.598;2023-03-19T07:48:26;97729.90;;;4.46;61.84
61359;BME280;47228;46.762;23.598;2023-03-19T07:50:54;97732.05;;;4.62;61.14
61359;BME280;47228;46.762;23.598;2023-03-19T07:53:23;97735.57;;;4.78;60.71
61359;BME280;47228;46.762;23.598;2023-03-19T07:55:52;97737.46;;;4.94;60.48
61359;BME280;47228;46.762;23.598;2023-03-19T07:58:20;97731.86;;;5.11;60.67
61359;BME280;47228;46.762;23.598;2023-03-19T08:00:49;97727.35;;;5.33;60.62
61359;BME280;47228;46.762;23.598;2023-03-19T08:03:17;97726.31;;;5.53;59.95
61359;BME280;47228;46.762;23.598;2023-03-19T08:05:47;97728.48;;;5.73;59.49
61359;BME280;47228;46.762;23.598;2023-03-19T08:08:16;97731.17;;;5.89;58.33
61359;BME280;47228;46.762;23.598;2023-03-19T08:10:47;97730.02;;;6.00;56.98
61359;BME280;47228;46.762;23.598;2023-03-19T08:13:17;97729.13;;;6.07;56.15
61359;BME280;47228;46.762;23.598;2023-03-19T08:15:45;97725.77;;;6.14;56.66
61359;BME280;47228;46.762;23.598;2023-03-19T08:18:13;97723.29;;;6.27;56.57
61359;BME280;47228;46.762;23.598;2023-03-19T08:20:43;97724.33;;;6.39;55.96
61359;BME280;47228;46.762;23.598;2023-03-19T08:23:12;97729.14;;;6.55;56.49
61359;BME280;47228;46.762;23.598;2023-03-19T08:25:40;97729.12;;;6.76;56.46
61359;BME280;47228;46.762;23.598;2023-03-19T08:28:08;97725.16;;;6.97;55.88
61359;BME280;47228;46.762;23.598;2023-03-19T08:30:36;97722.77;;;7.19;55.50
61359;BME280;47228;46.762;23.598;2023-03-19T08:33:05;97723.47;;;7.42;54.61
61359;BME280;47228;46.762;23.598;2023-03-19T08:35:33;97723.58;;;7.63;54.44
61359;BME280;47228;46.762;23.598;2023-03-19T08:38:01;97719.22;;;7.81;53.07
61359;BME280;47228;46.762;23.598;2023-03-19T08:40:29;97719.85;;;7.94;52.28
61359;BME280;47228;46.762;23.598;2023-03-19T08:42:57;97716.73;;;8.05;51.76
61359;BME280;47228;46.762;23.598;2023-03-19T08:45:25;97721.30;;;8.12;50.99
61359;BME280;47228;46.762;23.598;2023-03-19T08:47:53;97714.05;;;8.17;50.91
61359;BME280;47228;46.762;23.598;2023-03-19T08:50:21;97710.14;;;8.25;51.14
61359;BME280;47228;46.762;23.598;2023-03-19T08:52:48;97710.38;;;8.39;51.72
61359;BME280;47228;46.762;23.598;2023-03-19T08:55:17;97712.04;;;8.55;51.78
61359;BME280;47228;46.762;23.598;2023-03-19T08:57:45;97709.57;;;8.67;50.62
61359;BME280;47228;46.762;23.598;2023-03-19T09:00:13;97704.61;;;8.76;50.44
61359;BME280;47228;46.762;23.598;2023-03-19T09:02:41;97700.54;;;8.86;50.22
61359;BME280;47228;46.762;23.598;2023-03-19T09:05:09;97700.15;;;8.98;50.06
61359;BME280;47228;46.762;23.598;2023-03-19T09:07:37;97700.11;;;9.11;50.24
61359;BME280;47228;46.762;23.598;2023-03-19T09:10:05;97695.83;;;9.26;49.57
61359;BME280;47228;46.762;23.598;2023-03-19T09:12:33;97697.33;;;9.32;48.33
61359;BME280;47228;46.762;23.598;2023-03-19T09:15:02;97695.95;;;9.33;47.98
61359;BME280;47228;46.762;23.598;2023-03-19T09:17:31;97691.60;;;9.37;48.74
61359;BME280;47228;46.762;23.598;2023-03-19T09:19:58;97697.05;;;9.47;49.74
61359;BME280;47228;46.762;23.598;2023-03-19T09:22:26;97695.20;;;9.64;49.90
61359;BME280;47228;46.762;23.598;2023-03-19T09:24:54;97693.20;;;9.76;48.79
61359;BME280;47228;46.762;23.598;2023-03-19T09:27:22;97691.14;;;9.79;48.09
61359;BME280;47228;46.762;23.598;2023-03-19T09:29:50;97689.27;;;9.82;49.20
61359;BME280;47228;46.762;23.598;2023-03-19T09:32:18;97689.11;;;9.92;49.63
61359;BME280;47228;46.762;23.598;2023-03-19T09:34:45;97688.34;;;10.03;48.96
61359;BME280;47228;46.762;23.598;2023-03-19T09:37:14;97683.56;;;10.09;47.89
61359;BME280;47228;46.762;23.598;2023-03-19T09:39:42;97684.45;;;10.07;47.41
61359;BME280;47228;46.762;23.598;2023-03-19T09:44:46;97678.19;;;10.09;47.51
61359;BME280;47228;46.762;23.598;2023-03-19T09:47:32;97672.96;;;10.16;48.68
61359;BME280;47228;46.762;23.598;2023-03-19T09:50:08;97669.75;;;10.33;48.41
61359;BME280;47228;46.762;23.598;2023-03-19T09:52:43;97664.39;;;10.44;47.50
61359;BME280;47228;46.762;23.598;2023-03-19T09:57:42;97664.91;;;10.70;48.53
61359;BME280;47228;46.762;23.598;2023-03-19T10:00:20;97662.19;;;10.91;47.52
61359;BME280;47228;46.762;23.598;2023-03-19T10:02:57;97664.30;;;11.08;47.28
61359;BME280;47228;46.762;23.598;2023-03-19T10:08:26;97665.89;;;11.42;47.38
61359;BME280;47228;46.762;23.598;2023-03-19T10:17:03;97664.80;;;11.89;45.38
61359;BME280;47228;46.762;23.598;2023-03-19T10:22:52;97658.02;;;12.18;45.11
61359;BME280;47228;46.762;23.598;2023-03-19T10:25:22;97657.77;;;12.36;44.01
61359;BME280;47228;46.762;23.598;2023-03-19T10:27:59;97657.26;;;12.45;43.87
61359;BME280;47228;46.762;23.598;2023-03-19T10:30:32;97653.20;;;12.63;43.21
61359;BME280;47228;46.762;23.598;2023-03-19T10:33:22;97646.59;;;12.78;42.50
61359;BME280;47228;46.762;23.598;2023-03-19T10:35:57;97635.58;;;12.88;42.33
61359;BME280;47228;46.762;23.598;2023-03-19T10:38:28;97628.56;;;12.99;42.41
61359;BME280;47228;46.762;23.598;2023-03-19T10:43:53;97625.30;;;13.50;41.84
61359;BME280;47228;46.762;23.598;2023-03-19T10:46:23;97622.27;;;13.72;41.13
61359;BME280;47228;46.762;23.598;2023-03-19T10:48:51;97619.52;;;13.88;40.82
61359;BME280;47228;46.762;23.598;2023-03-19T10:51:21;97612.88;;;14.02;40.22
61359;BME280;47228;46.762;23.598;2023-03-19T10:53:53;97607.05;;;14.13;38.98
61359;BME280;47228;46.762;23.598;2023-03-19T10:56:25;97602.56;;;14.20;38.56
61359;BME280;47228;46.762;23.598;2023-03-19T10:59:03;97598.55;;;14.27;37.76
61359;BME280;47228;46.762;23.598;2023-03-19T11:01:34;97590.63;;;14.25;37.42
61359;BME280;47228;46.762;23.598;2023-03-19T11:04:16;97588.81;;;14.31;37.87
61359;BME280;47228;46.762;23.598;2023-03-19T11:06:50;97583.42;;;14.43;37.02
61359;BME280;47228;46.762;23.598;2023-03-19T11:10:03;97582.91;;;14.44;37.06
61359;BME280;47228;46.762;23.598;2023-03-19T11:12:29;97575.13;;;14.60;37.27
61359;BME280;47228;46.762;23.598;2023-03-19T11:14:59;97573.38;;;14.77;37.39
61359;BME280;47228;46.762;23.598;2023-03-19T11:17:48;97567.80;;;14.83;36.73
61359;BME280;47228;46.762;23.598;2023-03-19T11:20:32;97567.18;;;14.93;36.77
61359;BME280;47228;46.762;23.598;2023-03-19T11:23:06;97564.63;;;15.09;35.91
61359;BME280;47228;46.762;23.598;2023-03-19T11:25:39;97566.85;;;15.13;35.23
61359;BME280;47228;46.762;23.598;2023-03-19T11:28:14;97566.62;;;15.19;35.82
61359;BME280;47228;46.762;23.598;2023-03-19T11:47:36;97548.20;;;14.45;35.89
61359;BME280;47228;46.762;23.598;2023-03-19T11:50:29;97543.80;;;14.39;36.11
61359;BME280;47228;46.762;23.598;2023-03-19T11:53:02;97542.88;;;14.32;35.44
61359;BME280;47228;46.762;23.598;2023-03-19T11:55:40;97540.48;;;14.22;34.98
61359;BME280;47228;46.762;23.598;2023-03-19T12:00:56;97538.40;;;13.96;35.60
61359;BME280;47228;46.762;23.598;2023-03-19T12:12:06;97523.61;;;13.80;36.10
61359;BME280;47228;46.762;23.598;2023-03-19T12:20:36;97509.81;;;13.75;36.85
61359;BME280;47228;46.762;23.598;2023-03-19T12:26:09;97500.11;;;13.65;36.18
61359;BME280;47228;46.762;23.598;2023-03-19T12:28:53;97500.08;;;13.63;36.23
61359;BME280;47228;46.762;23.598;2023-03-19T12:32:05;97489.23;;;13.62;36.15
61359;BME280;47228;46.762;23.598;2023-03-19T12:34:52;97485.40;;;13.61;36.56
61359;BME280;47228;46.762;23.598;2023-03-19T12:37:29;97482.80;;;13.63;36.23
61359;BME280;47228;46.762;23.598;2023-03-19T12:43:02;97474.82;;;13.76;36.38
61359;BME280;47228;46.762;23.598;2023-03-19T12:45:43;97472.19;;;13.81;36.26
61359;BME280;47228;46.762;23.598;2023-03-19T12:48:23;97470.44;;;13.83;36.40
61359;BME280;47228;46.762;23.598;2023-03-19T12:50:57;97467.70;;;13.82;35.32
61359;BME280;47228;46.762;23.598;2023-03-19T12:55:59;97460.19;;;13.73;35.67
61359;BME280;47228;46.762;23.598;2023-03-19T12:58:55;97458.54;;;13.73;35.48
61359;BME280;47228;46.762;23.598;2023-03-19T13:01:52;97459.16;;;13.76;35.44
61359;BME280;47228;46.762;23.598;2023-03-19T13:04:30;97459.25;;;13.81;35.22
61359;BME280;47228;46.762;23.598;2023-03-19T13:07:07;97457.77;;;13.85;35.89
61359;BME280;47228;46.762;23.598;2023-03-19T13:09:43;97453.91;;;13.91;36.24
61359;BME280;47228;46.762;23.598;2023-03-19T13:12:25;97453.44;;;13.98;36.35
61359;BME280;47228;46.762;23.598;2023-03-19T13:15:06;97447.17;;;14.06;36.27
61359;BME280;47228;46.762;23.598;2023-03-19T13:20:23;97434.73;;;14.20;35.67
61359;BME280;47228;46.762;23.598;2023-03-19T13:22:55;97431.99;;;14.22;35.13
61359;BME280;47228;46.762;23.598;2023-03-19T13:25:31;97432.32;;;14.22;35.43
61359;BME280;47228;46.762;23.598;2023-03-19T13:28:00;97434.17;;;14.23;35.71
61359;BME280;47228;46.762;23.598;2023-03-19T13:30:28;97426.92;;;14.26;35.57
61359;BME280;47228;46.762;23.598;2023-03-19T13:33:03;97424.54;;;14.33;35.16
61359;BME280;47228;46.762;23.598;2023-03-19T13:35:37;97421.97;;;14.41;34.87
61359;BME280;47228;46.762;23.598;2023-03-19T13:38:17;97416.02;;;14.44;34.88
61359;BME280;47228;46.762;23.598;2023-03-19T13:48:35;97406.95;;;14.44;35.06
61359;BME280;47228;46.762;23.598;2023-03-19T13:53:36;97398.34;;;14.28;34.70
61359;BME280;47228;46.762;23.598;2023-03-19T13:56:09;97392.39;;;14.24;35.14
61359;BME280;47228;46.762;23.598;2023-03-19T14:01:43;97386.70;;;14.16;35.62
61359;BME280;47228;46.762;23.598;2023-03-19T14:04:27;97386.48;;;14.18;35.83
61359;BME280;47228;46.762;23.598;2023-03-19T14:09:47;97378.98;;;14.23;35.99
61359;BME280;47228;46.762;23.598;2023-03-19T14:15:00;97371.21;;;14.46;36.48
61359;BME280;47228;46.762;23.598;2023-03-19T14:17:37;97375.46;;;14.70;35.52
61359;BME280;47228;46.762;23.598;2023-03-19T14:25:25;97372.54;;;14.90;35.03
61359;BME280;47228;46.762;23.598;2023-03-19T14:27:58;97367.86;;;14.92;35.07
61359;BME280;47228;46.762;23.598;2023-03-19T14:30:36;97365.91;;;14.90;34.89
61359;BME280;47228;46.762;23.598;2023-03-19T14:33:14;97361.84;;;14.85;34.75
61359;BME280;47228;46.762;23.598;2023-03-19T14:35:45;97353.34;;;14.79;34.70
61359;BME280;47228;46.762;23.598;2023-03-19T14:38:37;97352.02;;;14.72;34.80
61359;BME280;47228;46.762;23.598;2023-03-19T14:41:13;97350.35;;;14.64;35.50
61359;BME280;47228;46.762;23.598;2023-03-19T14:46:31;97350.99;;;14.51;35.05
61359;BME280;47228;46.762;23.598;2023-03-19T14:51:56;97353.70;;;14.40;35.66
61359;BME280;47228;46.762;23.598;2023-03-19T14:54:43;97355.16;;;14.36;35.28